X  Lukk Metar værinformasjon om luftfart     LBPD Plovdiv International Airport
Temperatur
72°F Temperatur
63°F Duggpunkt
73% Luftfuktighet



Vind
5 MPT
8 KM/T
2 M/S
4 KNP



240°
VSV
Nåværende forhold

Unknown Unknown
Trykk 1009.82 (hPa) - 29.82 (inHg)
Sikt 6 (mil) - 9.7 (km)
Flyplass
Flyplass-kode LBPD

Plassering: Plovdiv International Airport
Avstand: 14 (mi)

Metar:
LBPD 140530Z AUTO 24004KT 180V280 9999 //////CB 22/17 Q1010 TEMPO TSRA SCT030CB

Tid: 14-06-2024 08:30 EEST